createdAt,value
2018-06-09T00:00:03.726Z,43.60
2018-06-09T00:02:32.078Z,43.80
2018-06-09T00:05:00.438Z,43.90
2018-06-09T00:07:28.759Z,44.10
2018-06-09T00:09:57.110Z,44.10
2018-06-09T00:12:25.424Z,44.20
2018-06-09T00:14:53.780Z,44.80
2018-06-09T00:17:22.113Z,44.40
2018-06-09T00:19:50.503Z,44.50
2018-06-09T00:22:18.823Z,44.60
2018-06-09T00:24:47.177Z,44.50
2018-06-09T00:27:15.510Z,44.60
2018-06-09T00:29:43.812Z,44.60
2018-06-09T00:32:12.175Z,44.70
2018-06-09T00:34:40.473Z,44.80
2018-06-09T00:37:08.805Z,45.10
2018-06-09T00:39:37.159Z,45.20
2018-06-09T00:42:05.481Z,45.30
2018-06-09T00:44:33.790Z,45.40
2018-06-09T00:47:02.160Z,46.40
2018-06-09T00:49:30.539Z,46.20
2018-06-09T00:51:58.869Z,46.70
2018-06-09T00:54:27.236Z,47.20
2018-06-09T00:56:55.583Z,47.70
2018-06-09T00:59:23.901Z,47.60
2018-06-09T01:01:52.279Z,47.80
2018-06-09T01:04:20.623Z,48.10
2018-06-09T01:06:48.959Z,48.10
2018-06-09T01:09:17.268Z,47.80
2018-06-09T01:11:46.239Z,47.80
2018-06-09T01:14:14.545Z,47.80
2018-06-09T01:16:42.864Z,47.60
2018-06-09T01:19:11.216Z,48.30
2018-06-09T01:21:39.527Z,47.50
2018-06-09T01:24:07.873Z,47.50
2018-06-09T01:26:36.195Z,47.40
2018-06-09T01:29:04.538Z,47.30
2018-06-09T01:31:32.854Z,47.50
2018-06-09T01:34:01.199Z,47.40
2018-06-09T01:36:29.511Z,47.20
2018-06-09T01:38:57.854Z,47.30
2018-06-09T01:41:26.181Z,47.40
2018-06-09T01:43:54.507Z,47.20
2018-06-09T01:46:22.844Z,47.40
2018-06-09T01:48:51.212Z,47.20
2018-06-09T01:51:19.537Z,47.40
2018-06-09T01:53:47.871Z,47.50
2018-06-09T01:56:16.213Z,47.70
2018-06-09T01:58:44.538Z,47.80
2018-06-09T02:01:12.894Z,47.90
2018-06-09T02:03:41.207Z,48.00
2018-06-09T02:06:09.539Z,47.90
2018-06-09T02:08:37.856Z,48.00
2018-06-09T02:11:06.214Z,48.10
2018-06-09T02:13:34.562Z,48.10
2018-06-09T02:16:02.897Z,48.20
2018-06-09T02:18:31.222Z,48.20
2018-06-09T02:20:59.561Z,48.40
2018-06-09T02:23:27.884Z,48.70
2018-06-09T02:25:56.215Z,48.80
2018-06-09T02:28:24.532Z,49.00
2018-06-09T02:30:52.853Z,49.20
2018-06-09T02:33:21.158Z,49.50
2018-06-09T02:35:50.058Z,49.80
2018-06-09T02:38:18.455Z,50.20
2018-06-09T02:40:46.759Z,50.70
2018-06-09T02:43:15.086Z,51.00
2018-06-09T02:45:43.411Z,51.30
2018-06-09T02:48:11.734Z,51.50
2018-06-09T02:50:40.113Z,51.40
2018-06-09T02:53:08.444Z,51.60
2018-06-09T02:55:36.809Z,51.50
2018-06-09T02:58:05.243Z,51.30
2018-06-09T03:00:33.555Z,51.20
2018-06-09T03:03:01.926Z,51.60
2018-06-09T03:05:30.239Z,51.70
2018-06-09T03:07:58.565Z,51.60
2018-06-09T03:10:26.931Z,51.70
2018-06-09T03:12:55.293Z,51.80
2018-06-09T03:15:23.624Z,51.90
2018-06-09T03:17:51.982Z,52.20
2018-06-09T03:20:20.336Z,52.50
2018-06-09T03:22:48.657Z,53.10
2018-06-09T03:25:16.976Z,53.20
2018-06-09T03:27:45.293Z,53.30
2018-06-09T03:30:13.617Z,53.40
2018-06-09T03:32:41.955Z,53.50
2018-06-09T03:35:10.331Z,53.80
2018-06-09T03:37:38.760Z,53.80
2018-06-09T03:40:07.228Z,53.80
2018-06-09T03:42:35.649Z,54.00
2018-06-09T03:45:04.888Z,53.90
2018-06-09T03:47:33.227Z,53.90
2018-06-09T03:52:29.912Z,54.20
2018-06-09T03:54:58.323Z,54.10
2018-06-09T03:57:26.627Z,54.30
2018-06-09T03:59:55.056Z,54.40
2018-06-09T04:02:23.467Z,54.30
2018-06-09T04:04:51.823Z,54.20
2018-06-09T04:07:20.845Z,54.40
2018-06-09T04:09:49.301Z,54.50
2018-06-09T04:12:17.904Z,54.60
2018-06-09T04:14:46.390Z,54.70
2018-06-09T04:17:14.924Z,55.40
2018-06-09T04:19:43.436Z,54.70
2018-06-09T04:22:11.877Z,54.50
2018-06-09T04:24:40.218Z,54.20
2018-06-09T04:27:08.619Z,53.80
2018-06-09T04:29:36.949Z,53.40
2018-06-09T04:32:05.306Z,52.90
2018-06-09T04:34:34.681Z,52.60
2018-06-09T04:37:03.023Z,52.50
2018-06-09T04:39:31.324Z,52.30
2018-06-09T04:41:59.675Z,52.20
2018-06-09T04:44:28.001Z,52.30
2018-06-09T04:46:56.430Z,52.70
2018-06-09T04:49:24.767Z,52.40
2018-06-09T04:51:53.095Z,52.10
2018-06-09T04:54:21.439Z,51.80
2018-06-09T04:56:49.773Z,51.50
2018-06-09T04:59:18.157Z,51.20
2018-06-09T05:04:14.809Z,51.10
2018-06-09T05:09:11.218Z,50.80
2018-06-09T05:11:39.555Z,50.90
2018-06-09T05:14:07.893Z,50.60
2018-06-09T05:16:36.233Z,50.40
2018-06-09T05:19:04.581Z,50.10
2018-06-09T05:21:32.907Z,50.00
2018-06-09T05:24:01.312Z,50.00
2018-06-09T05:26:30.192Z,49.80
2018-06-09T05:28:58.540Z,49.60
2018-06-09T05:31:26.925Z,49.10
2018-06-09T05:33:55.262Z,48.90
2018-06-09T05:36:23.594Z,48.60
2018-06-09T05:38:51.914Z,48.10
2018-06-09T05:41:20.263Z,48.00
2018-06-09T05:43:48.616Z,47.80
2018-06-09T05:46:16.975Z,47.60
2018-06-09T05:48:45.295Z,47.80
2018-06-09T05:51:13.640Z,47.90
2018-06-09T05:53:41.979Z,47.50
2018-06-09T05:56:10.373Z,47.30
2018-06-09T05:58:38.719Z,47.10
2018-06-09T06:01:07.089Z,47.00
2018-06-09T06:03:35.429Z,46.50
2018-06-09T06:06:03.803Z,46.40
2018-06-09T06:08:32.146Z,45.90
2018-06-09T06:11:01.154Z,45.50
2018-06-09T06:13:29.520Z,45.50
2018-06-09T06:15:57.884Z,45.30
2018-06-09T06:18:26.272Z,44.60
2018-06-09T06:20:54.587Z,44.20
2018-06-09T06:23:22.905Z,43.90
2018-06-09T06:25:51.788Z,43.40
2018-06-09T06:28:20.143Z,43.60
2018-06-09T06:30:48.503Z,43.40
2018-06-09T06:33:17.082Z,43.50
2018-06-09T06:35:45.412Z,43.30
2018-06-09T06:38:13.771Z,42.90
2018-06-09T06:40:42.147Z,42.70
2018-06-09T06:43:10.482Z,43.10
2018-06-09T06:45:38.808Z,43.10
2018-06-09T06:48:07.131Z,42.20
2018-06-09T06:50:35.503Z,42.40
2018-06-09T06:53:03.868Z,41.70
2018-06-09T06:55:32.211Z,41.50
2018-06-09T06:58:00.559Z,41.90
2018-06-09T07:00:28.914Z,41.40
2018-06-09T07:02:57.276Z,40.60
2018-06-09T07:05:25.691Z,40.20
2018-06-09T07:07:54.923Z,39.50
2018-06-09T07:10:23.834Z,39.30
2018-06-09T07:12:52.211Z,40.20
2018-06-09T07:15:20.557Z,39.90
2018-06-09T07:17:48.966Z,38.80
2018-06-09T07:20:17.329Z,38.80
2018-06-09T07:22:45.739Z,38.20
2018-06-09T07:25:14.150Z,36.60
2018-06-09T07:27:42.543Z,37.00
2018-06-09T07:30:10.898Z,36.80
2018-06-09T07:32:39.681Z,37.30
2018-06-09T07:35:08.050Z,36.40
2018-06-09T07:37:36.523Z,35.50
2018-06-09T07:40:04.915Z,34.40
2018-06-09T07:42:33.396Z,34.20
2018-06-09T07:45:01.947Z,34.70
2018-06-09T07:47:30.300Z,34.60
2018-06-09T07:49:58.606Z,34.10
2018-06-09T07:52:26.948Z,33.00
2018-06-09T07:54:55.264Z,33.40
2018-06-09T07:57:23.632Z,33.70
2018-06-09T07:59:51.981Z,33.90
2018-06-09T08:02:20.982Z,32.70
2018-06-09T08:04:52.327Z,32.40
2018-06-09T08:07:20.771Z,32.00
2018-06-09T08:09:49.083Z,31.50
2018-06-09T08:12:17.429Z,31.20
2018-06-09T08:14:45.713Z,30.70
2018-06-09T08:17:14.138Z,30.80
2018-06-09T08:19:42.477Z,30.70
2018-06-09T08:22:10.871Z,30.70
2018-06-09T08:24:39.184Z,29.90
2018-06-09T08:27:07.637Z,30.10
2018-06-09T08:29:35.958Z,30.00
2018-06-09T08:32:04.300Z,29.50
2018-06-09T08:34:32.621Z,29.30
2018-06-09T08:37:01.053Z,29.20
2018-06-09T08:39:29.398Z,28.90
2018-06-09T08:41:57.778Z,28.40
2018-06-09T08:44:26.078Z,28.10
2018-06-09T08:46:54.869Z,27.90
2018-06-09T08:49:23.253Z,28.10
2018-06-09T08:51:51.571Z,27.60
2018-06-09T08:54:19.967Z,27.30
2018-06-09T08:56:48.346Z,27.50
2018-06-09T08:59:16.662Z,27.40
2018-06-09T09:01:45.029Z,27.60
2018-06-09T09:04:13.414Z,27.20
2018-06-09T09:06:41.720Z,26.60
2018-06-09T09:09:10.065Z,26.30
2018-06-09T09:11:38.398Z,26.40
2018-06-09T09:14:06.743Z,26.30
2018-06-09T09:16:35.094Z,26.40
2018-06-09T09:19:03.512Z,26.40
2018-06-09T09:21:31.838Z,25.10
2018-06-09T09:24:00.181Z,24.80
2018-06-09T09:26:28.501Z,24.50
2018-06-09T09:28:56.852Z,23.60
2018-06-09T09:31:25.219Z,23.90
2018-06-09T09:33:53.532Z,23.70
2018-06-09T09:36:21.882Z,23.60
2018-06-09T09:38:50.194Z,23.50
2018-06-09T09:41:18.516Z,23.50
2018-06-09T09:43:46.955Z,23.70
2018-06-09T09:46:15.281Z,24.30
2018-06-09T09:48:43.621Z,24.00
2018-06-09T09:51:11.978Z,23.90
2018-06-09T09:53:40.304Z,23.30
2018-06-09T09:56:08.651Z,23.30
2018-06-09T09:58:36.971Z,22.60
2018-06-09T10:01:05.342Z,23.30
2018-06-09T10:03:33.668Z,22.70
2018-06-09T10:06:02.037Z,22.90
2018-06-09T10:08:30.416Z,23.10
2018-06-09T10:10:58.771Z,22.80
2018-06-09T10:13:27.140Z,22.40
2018-06-09T10:15:55.509Z,21.60
2018-06-09T10:18:23.837Z,21.60
2018-06-09T10:20:52.274Z,21.50
2018-06-09T10:23:20.604Z,21.30
2018-06-09T10:25:48.921Z,21.40
2018-06-09T10:28:17.272Z,21.00
2018-06-09T10:30:45.614Z,20.90
2018-06-09T10:33:14.017Z,20.60
2018-06-09T10:35:43.077Z,20.80
2018-06-09T10:38:11.425Z,20.70
2018-06-09T10:40:39.748Z,20.60
2018-06-09T10:45:36.170Z,20.20
2018-06-09T10:48:04.536Z,19.90
2018-06-09T10:50:32.841Z,19.90
2018-06-09T10:53:01.193Z,20.80
2018-06-09T10:55:29.524Z,19.90
2018-06-09T10:57:57.873Z,19.70
2018-06-09T11:00:26.210Z,19.10
2018-06-09T11:02:54.590Z,19.30
2018-06-09T11:05:22.899Z,19.50
2018-06-09T11:07:51.219Z,19.40
2018-06-09T11:10:19.564Z,19.60
2018-06-09T11:12:47.902Z,19.10
2018-06-09T11:15:16.672Z,19.00
2018-06-09T11:17:45.046Z,18.90
2018-06-09T11:20:14.088Z,18.10
2018-06-09T11:22:43.096Z,18.40
2018-06-09T11:25:11.453Z,18.60
2018-06-09T11:27:39.768Z,17.90
2018-06-09T11:30:08.130Z,17.90
2018-06-09T11:32:36.440Z,17.70
2018-06-09T11:35:04.785Z,18.20
2018-06-09T11:37:33.135Z,17.70
2018-06-09T11:40:01.463Z,18.00
2018-06-09T11:42:29.817Z,18.30
2018-06-09T11:44:58.174Z,18.10
2018-06-09T11:47:26.552Z,18.10
2018-06-09T11:49:54.943Z,18.70
2018-06-09T11:52:23.238Z,17.90
2018-06-09T11:54:51.583Z,17.70
2018-06-09T11:57:19.944Z,18.00
2018-06-09T11:59:48.295Z,17.50
2018-06-09T12:02:16.700Z,17.30
2018-06-09T12:07:20.102Z,18.20
2018-06-09T12:09:48.469Z,18.20
2018-06-09T12:12:17.131Z,17.80
2018-06-09T12:14:45.432Z,17.70
2018-06-09T12:17:13.823Z,17.50
2018-06-09T12:19:42.137Z,17.00
2018-06-09T12:22:10.476Z,17.40
2018-06-09T12:24:38.838Z,18.10
2018-06-09T12:27:07.207Z,18.40
2018-06-09T12:29:35.546Z,18.30
2018-06-09T12:32:03.924Z,18.40
2018-06-09T12:34:32.316Z,18.40
2018-06-09T12:37:00.917Z,18.50
2018-06-09T12:39:29.382Z,18.00
2018-06-09T12:44:26.398Z,18.70
2018-06-09T12:46:54.921Z,18.90
2018-06-09T12:49:23.225Z,19.50
2018-06-09T12:51:51.627Z,19.20
2018-06-09T12:54:19.975Z,18.90
2018-06-09T12:56:48.453Z,19.00
2018-06-09T12:59:16.851Z,18.50
2018-06-09T13:01:45.195Z,18.20
2018-06-09T13:04:13.539Z,18.70
2018-06-09T13:06:41.912Z,18.60
2018-06-09T13:09:10.278Z,18.40
2018-06-09T13:11:38.969Z,18.20
2018-06-09T13:14:09.219Z,18.10
2018-06-09T13:16:37.566Z,17.80
2018-06-09T13:19:06.784Z,17.90
2018-06-09T13:21:35.481Z,18.10
2018-06-09T13:24:03.835Z,18.20
2018-06-09T13:26:32.194Z,18.00
2018-06-09T13:29:34.928Z,18.00
2018-06-09T13:32:04.776Z,18.30
2018-06-09T13:34:33.599Z,18.40
2018-06-09T13:37:01.944Z,18.30
2018-06-09T13:39:30.313Z,18.40
2018-06-09T13:41:58.678Z,18.90
2018-06-09T13:44:27.557Z,18.70
2018-06-09T13:46:56.482Z,18.70
2018-06-09T13:49:25.096Z,18.50
2018-06-09T13:51:53.460Z,18.40
2018-06-09T13:54:21.956Z,18.30
2018-06-09T13:56:50.282Z,18.50
2018-06-09T13:59:18.675Z,18.40
2018-06-09T14:01:47.038Z,18.40
2018-06-09T14:04:15.396Z,18.10
2018-06-09T14:06:43.814Z,17.30
2018-06-09T14:09:12.156Z,17.90
2018-06-09T14:11:40.571Z,17.50
2018-06-09T14:14:08.935Z,17.20
2018-06-09T14:16:37.281Z,17.50
2018-06-09T14:19:05.615Z,18.10
2018-06-09T14:21:34.103Z,18.50
2018-06-09T14:24:02.460Z,18.50
2018-06-09T14:26:30.783Z,18.50
2018-06-09T14:28:59.135Z,18.60
2018-06-09T14:31:27.526Z,18.90
2018-06-09T14:33:55.851Z,19.00
2018-06-09T14:36:24.201Z,19.10
2018-06-09T14:38:52.583Z,18.70
2018-06-09T14:41:20.994Z,18.90
2018-06-09T14:46:17.375Z,18.70
2018-06-09T14:48:45.733Z,18.30
2018-06-09T14:51:14.160Z,18.70
2018-06-09T14:53:42.590Z,18.80
2018-06-09T14:56:10.990Z,18.80
2018-06-09T14:58:39.348Z,18.90
2018-06-09T15:01:07.724Z,19.20
2018-06-09T15:03:36.369Z,18.70
2018-06-09T15:06:04.695Z,18.70
2018-06-09T15:08:33.040Z,18.40
2018-06-09T15:11:01.413Z,18.30
2018-06-09T15:13:29.772Z,18.00
2018-06-09T15:15:58.115Z,17.70
2018-06-09T15:18:26.639Z,17.40
2018-06-09T15:20:54.964Z,17.80
2018-06-09T15:23:23.312Z,18.00
2018-06-09T15:25:51.676Z,18.40
2018-06-09T15:28:20.031Z,18.60
2018-06-09T15:30:48.383Z,18.90
2018-06-09T15:33:16.787Z,19.20
2018-06-09T15:35:45.190Z,19.20
2018-06-09T15:38:13.705Z,19.10
2018-06-09T15:40:42.167Z,19.20
2018-06-09T15:43:10.497Z,19.20
2018-06-09T15:45:38.862Z,18.70
2018-06-09T15:48:07.197Z,19.10
2018-06-09T15:50:35.530Z,19.50
2018-06-09T15:53:03.943Z,19.80
2018-06-09T15:55:32.314Z,19.70
2018-06-09T15:58:00.688Z,19.70
2018-06-09T16:00:29.117Z,19.60
2018-06-09T16:02:57.503Z,19.70
2018-06-09T16:05:25.948Z,19.80
2018-06-09T16:07:54.296Z,19.90
2018-06-09T16:10:22.652Z,20.30
2018-06-09T16:12:50.989Z,20.30
2018-06-09T16:15:19.491Z,20.60
2018-06-09T16:17:47.818Z,21.40
2018-06-09T16:20:16.165Z,21.20
2018-06-09T16:22:44.512Z,21.30
2018-06-09T16:25:12.907Z,21.70
2018-06-09T16:27:41.310Z,22.00
2018-06-09T16:30:09.643Z,22.20
2018-06-09T16:32:38.084Z,22.10
2018-06-09T16:35:06.408Z,22.30
2018-06-09T16:37:34.781Z,22.30
2018-06-09T16:40:03.094Z,21.80
2018-06-09T16:42:31.397Z,22.00
2018-06-09T16:44:59.725Z,22.30
2018-06-09T16:47:28.071Z,22.70
2018-06-09T16:49:56.374Z,22.60
2018-06-09T16:52:24.703Z,22.80
2018-06-09T16:54:53.066Z,23.00
2018-06-09T16:57:21.458Z,23.00
2018-06-09T16:59:49.812Z,23.30
2018-06-09T17:02:18.175Z,23.40
2018-06-09T17:04:46.547Z,23.40
2018-06-09T17:07:14.864Z,23.70
2018-06-09T17:09:43.206Z,23.40
2018-06-09T17:12:11.535Z,23.40
2018-06-09T17:14:39.900Z,23.30
2018-06-09T17:17:08.295Z,23.30
2018-06-09T17:19:36.665Z,23.50
2018-06-09T17:22:05.835Z,23.50
2018-06-09T17:24:34.769Z,23.60
2018-06-09T17:27:03.152Z,23.50
2018-06-09T17:29:31.637Z,23.70
2018-06-09T17:32:06.432Z,23.90
2018-06-09T17:34:34.829Z,24.30
2018-06-09T17:37:03.197Z,24.60
2018-06-09T17:39:31.567Z,24.70
2018-06-09T17:41:59.912Z,24.80
2018-06-09T17:44:28.302Z,25.10
2018-06-09T17:46:56.646Z,25.20
2018-06-09T17:49:25.010Z,25.30
2018-06-09T17:51:53.351Z,25.40
2018-06-09T17:54:21.786Z,25.40
2018-06-09T17:56:50.124Z,25.70
2018-06-09T17:59:18.475Z,26.40
2018-06-09T18:01:46.869Z,26.10
2018-06-09T18:04:15.281Z,26.20
2018-06-09T18:06:43.655Z,26.80
2018-06-09T18:09:12.043Z,26.30
2018-06-09T18:11:40.405Z,26.50
2018-06-09T18:14:08.754Z,26.80
2018-06-09T18:16:37.083Z,26.90
2018-06-09T18:19:05.514Z,27.10
2018-06-09T18:21:33.923Z,27.20
2018-06-09T18:24:02.314Z,27.40
2018-06-09T18:26:30.680Z,27.40
2018-06-09T18:28:59.024Z,27.60
2018-06-09T18:31:27.388Z,27.90
2018-06-09T18:36:23.842Z,28.20
2018-06-09T18:38:52.137Z,28.30
2018-06-09T18:41:20.516Z,28.60
2018-06-09T18:43:48.926Z,28.70
2018-06-09T18:46:17.289Z,28.90
2018-06-09T18:48:45.686Z,28.90
2018-06-09T18:51:14.028Z,29.00
2018-06-09T18:53:42.397Z,29.90
2018-06-09T18:56:10.811Z,32.30
2018-06-09T18:58:39.227Z,34.50
2018-06-09T19:01:07.506Z,37.40
2018-06-09T19:06:04.986Z,40.00
2018-06-09T19:08:33.300Z,40.90
2018-06-09T19:11:01.644Z,41.40
2018-06-09T19:13:30.010Z,42.00
2018-06-09T19:15:58.355Z,42.10
2018-06-09T19:18:26.713Z,42.50
2018-06-09T19:20:55.074Z,42.70
2018-06-09T19:23:23.437Z,43.30
2018-06-09T19:25:51.739Z,43.70
2018-06-09T19:28:20.122Z,44.30
2018-06-09T19:30:48.477Z,44.30
2018-06-09T19:33:16.952Z,44.60
2018-06-09T19:35:45.259Z,45.10
2018-06-09T19:38:13.647Z,45.40
2018-06-09T19:40:42.061Z,45.60
2018-06-09T19:43:10.359Z,45.50
2018-06-09T19:45:38.736Z,46.00
2018-06-09T19:48:07.075Z,46.30
2018-06-09T19:50:35.413Z,46.60
2018-06-09T19:53:03.758Z,46.90
2018-06-09T19:55:32.135Z,47.50
2018-06-09T19:58:00.758Z,47.70
2018-06-09T20:00:29.111Z,47.80
2018-06-09T20:02:57.449Z,47.90
2018-06-09T20:05:26.016Z,48.00
2018-06-09T20:07:54.335Z,48.20
2018-06-09T20:10:22.693Z,48.30
2018-06-09T20:12:51.063Z,49.10
2018-06-09T20:15:19.454Z,48.70
2018-06-09T20:17:47.808Z,49.00
2018-06-09T20:20:16.177Z,49.00
2018-06-09T20:22:44.530Z,49.40
2018-06-09T20:25:13.659Z,49.00
2018-06-09T20:27:42.003Z,49.00
2018-06-09T20:30:10.449Z,49.00
2018-06-09T20:32:38.876Z,49.10
2018-06-09T20:35:07.199Z,49.20
2018-06-09T20:37:35.606Z,49.60
2018-06-09T20:40:03.987Z,49.80
2018-06-09T20:42:32.337Z,49.80
2018-06-09T20:45:00.712Z,49.80
2018-06-09T20:47:29.093Z,50.00
2018-06-09T20:49:57.464Z,50.30
2018-06-09T20:52:25.854Z,50.50
2018-06-09T20:54:54.222Z,50.70
2018-06-09T20:57:22.640Z,51.50
2018-06-09T20:59:51.026Z,51.30
2018-06-09T21:02:19.462Z,51.00
2018-06-09T21:04:47.892Z,50.90
2018-06-09T21:07:16.264Z,51.10
2018-06-09T21:09:44.631Z,50.90
2018-06-09T21:12:12.995Z,51.00
2018-06-09T21:14:41.349Z,51.00
2018-06-09T21:17:09.743Z,51.10
2018-06-09T21:19:38.066Z,50.90
2018-06-09T21:22:06.506Z,51.40
2018-06-09T21:24:35.066Z,50.80
2018-06-09T21:27:08.940Z,50.80
2018-06-09T21:29:42.503Z,50.70
2018-06-09T21:32:15.193Z,50.80
2018-06-09T21:35:00.406Z,50.90
2018-06-09T21:37:34.263Z,51.00
2018-06-09T21:40:09.745Z,51.20
2018-06-09T21:42:44.292Z,51.70
2018-06-09T21:45:16.852Z,51.70
2018-06-09T21:47:46.618Z,51.70
2018-06-09T21:50:15.019Z,52.00
2018-06-09T21:52:43.404Z,52.60
2018-06-09T21:55:11.787Z,53.00
2018-06-09T21:57:40.144Z,53.70
2018-06-09T22:02:36.858Z,54.10
2018-06-09T22:05:05.311Z,54.10
2018-06-09T22:07:34.344Z,54.20
2018-06-09T22:10:02.748Z,54.20
2018-06-09T22:12:31.161Z,54.10
2018-06-09T22:14:59.474Z,53.90
2018-06-09T22:17:27.805Z,53.90
2018-06-09T22:19:56.252Z,53.70
2018-06-09T22:22:24.594Z,53.70
2018-06-09T22:24:52.969Z,53.70
2018-06-09T22:27:21.324Z,53.60
2018-06-09T22:29:49.677Z,53.70
2018-06-09T22:32:18.010Z,54.00
2018-06-09T22:34:46.370Z,54.20
2018-06-09T22:37:14.747Z,54.50
2018-06-09T22:39:43.149Z,54.80
2018-06-09T22:42:11.504Z,55.00
2018-06-09T22:44:39.890Z,55.20
2018-06-09T22:47:08.288Z,55.50
2018-06-09T22:49:36.656Z,55.70
2018-06-09T22:52:05.041Z,56.00
2018-06-09T22:54:33.390Z,56.60
2018-06-09T22:57:01.722Z,57.30
2018-06-09T22:59:30.058Z,57.90
2018-06-09T23:01:58.410Z,57.80
2018-06-09T23:04:26.747Z,58.60
2018-06-09T23:06:55.095Z,58.90
2018-06-09T23:09:23.459Z,58.90
2018-06-09T23:11:51.777Z,58.90
2018-06-09T23:14:20.128Z,58.90
2018-06-09T23:16:48.455Z,59.00
2018-06-09T23:19:16.858Z,59.10
2018-06-09T23:21:45.183Z,59.10
2018-06-09T23:24:13.543Z,59.30
2018-06-09T23:26:41.896Z,59.60
2018-06-09T23:29:10.247Z,59.50
2018-06-09T23:31:38.579Z,59.50
2018-06-09T23:34:06.902Z,59.80
2018-06-09T23:36:35.244Z,59.90
2018-06-09T23:39:04.498Z,60.00
2018-06-09T23:41:32.996Z,60.30
2018-06-09T23:44:01.328Z,60.90
2018-06-09T23:46:29.796Z,61.20
2018-06-09T23:48:58.103Z,61.40
2018-06-09T23:51:26.424Z,61.30
2018-06-09T23:54:01.099Z,61.10
2018-06-09T23:56:29.449Z,61.30
2018-06-09T23:58:57.871Z,61.60
